sensor_id;sensor_type;location;lat;lon;timestamp;P1;durP1;ratioP1;P2;durP2;ratioP2
3733;SDS011;1882;52.256;8.874;2023-07-20T00:02:17;4.77;;;2.77;;
3733;SDS011;1882;52.256;8.874;2023-07-20T00:04:46;3.30;;;2.30;;
3733;SDS011;1882;52.256;8.874;2023-07-20T00:07:13;4.60;;;3.10;;
3733;SDS011;1882;52.256;8.874;2023-07-20T00:09:39;4.30;;;3.13;;
3733;SDS011;1882;52.256;8.874;2023-07-20T00:12:06;3.80;;;3.20;;
3733;SDS011;1882;52.256;8.874;2023-07-20T00:14:33;4.73;;;2.87;;
3733;SDS011;1882;52.256;8.874;2023-07-20T00:17:00;7.00;;;3.10;;
3733;SDS011;1882;52.256;8.874;2023-07-20T00:19:27;3.10;;;2.63;;
3733;SDS011;1882;52.256;8.874;2023-07-20T00:21:54;6.10;;;3.03;;
3733;SDS011;1882;52.256;8.874;2023-07-20T00:24:21;4.10;;;2.67;;
3733;SDS011;1882;52.256;8.874;2023-07-20T00:26:48;3.17;;;2.93;;
3733;SDS011;1882;52.256;8.874;2023-07-20T00:29:15;3.13;;;2.90;;
3733;SDS011;1882;52.256;8.874;2023-07-20T00:31:42;4.50;;;3.17;;
3733;SDS011;1882;52.256;8.874;2023-07-20T00:34:10;4.50;;;3.23;;
3733;SDS011;1882;52.256;8.874;2023-07-20T00:36:37;3.10;;;2.83;;
3733;SDS011;1882;52.256;8.874;2023-07-20T00:39:04;6.00;;;2.90;;
3733;SDS011;1882;52.256;8.874;2023-07-20T00:41:31;3.80;;;2.53;;
3733;SDS011;1882;52.256;8.874;2023-07-20T00:43:59;3.43;;;3.13;;
3733;SDS011;1882;52.256;8.874;2023-07-20T00:46:26;4.10;;;3.47;;
3733;SDS011;1882;52.256;8.874;2023-07-20T00:48:53;3.60;;;3.30;;
3733;SDS011;1882;52.256;8.874;2023-07-20T00:51:20;7.00;;;2.50;;
3733;SDS011;1882;52.256;8.874;2023-07-20T00:53:48;4.10;;;3.30;;
3733;SDS011;1882;52.256;8.874;2023-07-20T00:56:15;4.17;;;3.03;;
3733;SDS011;1882;52.256;8.874;2023-07-20T00:58:43;7.80;;;2.63;;
3733;SDS011;1882;52.256;8.874;2023-07-20T01:01:10;6.03;;;2.80;;
3733;SDS011;1882;52.256;8.874;2023-07-20T01:03:37;4.17;;;3.10;;
3733;SDS011;1882;52.256;8.874;2023-07-20T01:08:47;4.60;;;3.20;;
3733;SDS011;1882;52.256;8.874;2023-07-20T01:11:16;2.80;;;2.60;;
3733;SDS011;1882;52.256;8.874;2023-07-20T01:13:48;3.30;;;3.10;;
3733;SDS011;1882;52.256;8.874;2023-07-20T01:16:14;2.93;;;2.73;;
3733;SDS011;1882;52.256;8.874;2023-07-20T01:18:41;6.80;;;3.30;;
3733;SDS011;1882;52.256;8.874;2023-07-20T01:21:09;3.53;;;3.10;;
3733;SDS011;1882;52.256;8.874;2023-07-20T01:31:55;4.37;;;3.30;;
3733;SDS011;1882;52.256;8.874;2023-07-20T01:34:23;3.60;;;3.10;;
3733;SDS011;1882;52.256;8.874;2023-07-20T01:36:52;4.40;;;2.97;;
3733;SDS011;1882;52.256;8.874;2023-07-20T01:39:19;4.90;;;3.23;;
3733;SDS011;1882;52.256;8.874;2023-07-20T01:41:47;6.37;;;3.33;;
3733;SDS011;1882;52.256;8.874;2023-07-20T01:44:14;3.20;;;2.90;;
3733;SDS011;1882;52.256;8.874;2023-07-20T01:46:40;7.73;;;3.27;;
3733;SDS011;1882;52.256;8.874;2023-07-20T01:49:07;4.13;;;2.53;;
3733;SDS011;1882;52.256;8.874;2023-07-20T01:51:34;3.10;;;2.77;;
3733;SDS011;1882;52.256;8.874;2023-07-20T01:54:00;5.07;;;2.57;;
3733;SDS011;1882;52.256;8.874;2023-07-20T01:56:27;2.60;;;2.40;;
3733;SDS011;1882;52.256;8.874;2023-07-20T01:58:56;3.03;;;2.30;;
3733;SDS011;1882;52.256;8.874;2023-07-20T02:01:22;3.27;;;2.77;;
3733;SDS011;1882;52.256;8.874;2023-07-20T02:03:49;3.97;;;2.63;;
3733;SDS011;1882;52.256;8.874;2023-07-20T02:06:16;4.07;;;2.47;;
3733;SDS011;1882;52.256;8.874;2023-07-20T02:08:42;3.80;;;2.73;;
3733;SDS011;1882;52.256;8.874;2023-07-20T02:11:09;3.47;;;2.80;;
3733;SDS011;1882;52.256;8.874;2023-07-20T02:13:36;3.50;;;2.47;;
3733;SDS011;1882;52.256;8.874;2023-07-20T02:16:03;2.70;;;2.50;;
3733;SDS011;1882;52.256;8.874;2023-07-20T02:18:30;4.63;;;2.77;;
3733;SDS011;1882;52.256;8.874;2023-07-20T02:21:08;4.43;;;2.50;;
3733;SDS011;1882;52.256;8.874;2023-07-20T02:23:34;5.90;;;2.73;;
3733;SDS011;1882;52.256;8.874;2023-07-20T02:26:01;3.40;;;2.77;;
3733;SDS011;1882;52.256;8.874;2023-07-20T02:28:28;3.30;;;2.90;;
3733;SDS011;1882;52.256;8.874;2023-07-20T02:31:02;3.50;;;2.87;;
3733;SDS011;1882;52.256;8.874;2023-07-20T02:33:29;3.83;;;2.90;;
3733;SDS011;1882;52.256;8.874;2023-07-20T02:35:56;2.87;;;2.60;;
3733;SDS011;1882;52.256;8.874;2023-07-20T02:38:23;3.17;;;2.90;;
3733;SDS011;1882;52.256;8.874;2023-07-20T02:40:52;4.67;;;2.73;;
3733;SDS011;1882;52.256;8.874;2023-07-20T02:43:21;9.77;;;3.20;;
3733;SDS011;1882;52.256;8.874;2023-07-20T02:45:48;5.33;;;3.07;;
3733;SDS011;1882;52.256;8.874;2023-07-20T02:48:16;3.70;;;3.37;;
3733;SDS011;1882;52.256;8.874;2023-07-20T02:50:43;8.27;;;3.67;;
3733;SDS011;1882;52.256;8.874;2023-07-20T02:53:10;5.93;;;3.20;;
3733;SDS011;1882;52.256;8.874;2023-07-20T02:55:39;5.90;;;3.60;;
3733;SDS011;1882;52.256;8.874;2023-07-20T02:58:06;8.70;;;3.53;;
3733;SDS011;1882;52.256;8.874;2023-07-20T03:00:33;5.13;;;3.93;;
3733;SDS011;1882;52.256;8.874;2023-07-20T03:03:00;6.70;;;3.87;;
3733;SDS011;1882;52.256;8.874;2023-07-20T03:05:29;8.70;;;4.30;;
3733;SDS011;1882;52.256;8.874;2023-07-20T03:07:56;5.40;;;3.93;;
3733;SDS011;1882;52.256;8.874;2023-07-20T03:10:22;5.90;;;4.30;;
3733;SDS011;1882;52.256;8.874;2023-07-20T03:12:49;8.27;;;4.77;;
3733;SDS011;1882;52.256;8.874;2023-07-20T03:15:16;5.70;;;4.90;;
3733;SDS011;1882;52.256;8.874;2023-07-20T03:17:43;6.60;;;4.90;;
3733;SDS011;1882;52.256;8.874;2023-07-20T03:20:10;9.10;;;5.30;;
3733;SDS011;1882;52.256;8.874;2023-07-20T03:22:39;7.93;;;5.60;;
3733;SDS011;1882;52.256;8.874;2023-07-20T03:25:06;6.63;;;5.10;;
3733;SDS011;1882;52.256;8.874;2023-07-20T03:27:34;9.13;;;5.57;;
3733;SDS011;1882;52.256;8.874;2023-07-20T03:30:01;9.60;;;5.60;;
3733;SDS011;1882;52.256;8.874;2023-07-20T03:32:28;9.03;;;5.70;;
3733;SDS011;1882;52.256;8.874;2023-07-20T03:34:55;9.20;;;6.20;;
3733;SDS011;1882;52.256;8.874;2023-07-20T03:37:21;8.37;;;6.13;;
3733;SDS011;1882;52.256;8.874;2023-07-20T03:39:48;9.83;;;6.37;;
3733;SDS011;1882;52.256;8.874;2023-07-20T03:42:15;7.97;;;6.00;;
3733;SDS011;1882;52.256;8.874;2023-07-20T03:44:41;8.57;;;6.23;;
3733;SDS011;1882;52.256;8.874;2023-07-20T03:47:08;12.83;;;7.07;;
3733;SDS011;1882;52.256;8.874;2023-07-20T03:49:35;10.83;;;6.80;;
3733;SDS011;1882;52.256;8.874;2023-07-20T03:52:02;10.60;;;7.13;;
3733;SDS011;1882;52.256;8.874;2023-07-20T03:54:31;12.97;;;6.70;;
3733;SDS011;1882;52.256;8.874;2023-07-20T03:56:58;10.30;;;6.90;;
3733;SDS011;1882;52.256;8.874;2023-07-20T03:59:25;11.03;;;6.70;;
3733;SDS011;1882;52.256;8.874;2023-07-20T04:01:52;17.63;;;6.90;;
3733;SDS011;1882;52.256;8.874;2023-07-20T04:04:18;12.80;;;7.50;;
3733;SDS011;1882;52.256;8.874;2023-07-20T04:06:45;15.40;;;7.10;;
3733;SDS011;1882;52.256;8.874;2023-07-20T04:09:12;12.43;;;7.60;;
3733;SDS011;1882;52.256;8.874;2023-07-20T04:11:39;9.83;;;7.27;;
3733;SDS011;1882;52.256;8.874;2023-07-20T04:14:07;10.40;;;7.87;;
3733;SDS011;1882;52.256;8.874;2023-07-20T04:16:33;11.37;;;7.20;;
3733;SDS011;1882;52.256;8.874;2023-07-20T04:19:00;14.57;;;7.60;;
3733;SDS011;1882;52.256;8.874;2023-07-20T04:21:27;9.70;;;7.37;;
3733;SDS011;1882;52.256;8.874;2023-07-20T04:23:55;9.40;;;8.00;;
3733;SDS011;1882;52.256;8.874;2023-07-20T04:26:21;17.10;;;8.13;;
3733;SDS011;1882;52.256;8.874;2023-07-20T04:28:49;11.83;;;8.30;;
3733;SDS011;1882;52.256;8.874;2023-07-20T04:31:29;11.27;;;8.10;;
3733;SDS011;1882;52.256;8.874;2023-07-20T04:33:59;9.80;;;7.80;;
3733;SDS011;1882;52.256;8.874;2023-07-20T04:36:26;13.33;;;7.60;;
3733;SDS011;1882;52.256;8.874;2023-07-20T04:38:53;12.00;;;7.63;;
3733;SDS011;1882;52.256;8.874;2023-07-20T04:41:21;12.23;;;7.07;;
3733;SDS011;1882;52.256;8.874;2023-07-20T04:43:50;8.20;;;6.87;;
3733;SDS011;1882;52.256;8.874;2023-07-20T04:46:25;8.90;;;7.20;;
3733;SDS011;1882;52.256;8.874;2023-07-20T04:48:53;9.60;;;7.53;;
3733;SDS011;1882;52.256;8.874;2023-07-20T04:51:20;9.40;;;7.03;;
3733;SDS011;1882;52.256;8.874;2023-07-20T04:53:50;13.40;;;8.80;;
3733;SDS011;1882;52.256;8.874;2023-07-20T04:56:17;13.97;;;8.00;;
3733;SDS011;1882;52.256;8.874;2023-07-20T04:58:45;11.10;;;7.77;;
3733;SDS011;1882;52.256;8.874;2023-07-20T05:01:12;10.90;;;8.20;;
3733;SDS011;1882;52.256;8.874;2023-07-20T05:03:39;14.43;;;8.63;;
3733;SDS011;1882;52.256;8.874;2023-07-20T05:06:08;9.10;;;7.80;;
3733;SDS011;1882;52.256;8.874;2023-07-20T05:08:35;12.73;;;8.70;;
3733;SDS011;1882;52.256;8.874;2023-07-20T05:11:01;10.70;;;8.30;;
3733;SDS011;1882;52.256;8.874;2023-07-20T05:13:29;9.57;;;7.60;;
3733;SDS011;1882;52.256;8.874;2023-07-20T05:15:55;11.47;;;8.80;;
3733;SDS011;1882;52.256;8.874;2023-07-20T05:18:22;10.20;;;8.23;;
3733;SDS011;1882;52.256;8.874;2023-07-20T05:20:50;10.93;;;8.20;;
3733;SDS011;1882;52.256;8.874;2023-07-20T05:23:17;15.50;;;8.47;;
3733;SDS011;1882;52.256;8.874;2023-07-20T05:25:45;10.20;;;8.20;;
3733;SDS011;1882;52.256;8.874;2023-07-20T05:28:12;9.40;;;8.40;;
3733;SDS011;1882;52.256;8.874;2023-07-20T05:30:39;10.60;;;8.80;;
3733;SDS011;1882;52.256;8.874;2023-07-20T05:33:06;11.20;;;8.47;;
3733;SDS011;1882;52.256;8.874;2023-07-20T05:35:33;12.33;;;8.40;;
3733;SDS011;1882;52.256;8.874;2023-07-20T05:37:59;12.17;;;7.70;;
3733;SDS011;1882;52.256;8.874;2023-07-20T05:40:26;9.83;;;7.60;;
3733;SDS011;1882;52.256;8.874;2023-07-20T05:42:53;9.07;;;7.50;;
3733;SDS011;1882;52.256;8.874;2023-07-20T05:45:22;9.20;;;7.67;;
3733;SDS011;1882;52.256;8.874;2023-07-20T05:47:48;9.90;;;6.97;;
3733;SDS011;1882;52.256;8.874;2023-07-20T05:50:15;9.17;;;6.80;;
3733;SDS011;1882;52.256;8.874;2023-07-20T05:52:42;7.70;;;6.50;;
3733;SDS011;1882;52.256;8.874;2023-07-20T05:55:08;6.87;;;6.17;;
3733;SDS011;1882;52.256;8.874;2023-07-20T05:57:35;8.37;;;6.00;;
3733;SDS011;1882;52.256;8.874;2023-07-20T06:00:02;7.07;;;5.37;;
3733;SDS011;1882;52.256;8.874;2023-07-20T06:02:37;6.20;;;5.60;;
3733;SDS011;1882;52.256;8.874;2023-07-20T06:05:04;8.93;;;6.13;;
3733;SDS011;1882;52.256;8.874;2023-07-20T06:07:31;6.63;;;5.23;;
3733;SDS011;1882;52.256;8.874;2023-07-20T06:09:58;7.23;;;5.33;;
3733;SDS011;1882;52.256;8.874;2023-07-20T06:12:25;7.00;;;5.80;;
3733;SDS011;1882;52.256;8.874;2023-07-20T06:14:52;6.10;;;5.50;;
3733;SDS011;1882;52.256;8.874;2023-07-20T06:17:18;8.30;;;5.57;;
3733;SDS011;1882;52.256;8.874;2023-07-20T06:19:45;7.60;;;5.50;;
3733;SDS011;1882;52.256;8.874;2023-07-20T06:22:12;5.63;;;4.77;;
3733;SDS011;1882;52.256;8.874;2023-07-20T06:24:38;5.33;;;4.83;;
3733;SDS011;1882;52.256;8.874;2023-07-20T06:27:05;4.37;;;3.97;;
3733;SDS011;1882;52.256;8.874;2023-07-20T06:29:32;4.90;;;4.40;;
3733;SDS011;1882;52.256;8.874;2023-07-20T06:31:59;5.17;;;4.67;;
3733;SDS011;1882;52.256;8.874;2023-07-20T06:34:26;5.60;;;4.13;;
3733;SDS011;1882;52.256;8.874;2023-07-20T06:36:55;5.57;;;4.37;;
3733;SDS011;1882;52.256;8.874;2023-07-20T06:39:24;4.40;;;4.00;;
3733;SDS011;1882;52.256;8.874;2023-07-20T06:41:54;5.03;;;4.00;;
3733;SDS011;1882;52.256;8.874;2023-07-20T06:44:21;4.10;;;3.70;;
3733;SDS011;1882;52.256;8.874;2023-07-20T06:46:48;4.03;;;3.47;;
3733;SDS011;1882;52.256;8.874;2023-07-20T06:49:24;3.47;;;3.10;;
3733;SDS011;1882;52.256;8.874;2023-07-20T06:51:54;3.73;;;3.10;;
3733;SDS011;1882;52.256;8.874;2023-07-20T06:54:24;3.03;;;2.73;;
3733;SDS011;1882;52.256;8.874;2023-07-20T06:57:02;2.53;;;2.33;;
3733;SDS011;1882;52.256;8.874;2023-07-20T06:59:36;2.17;;;1.93;;
3733;SDS011;1882;52.256;8.874;2023-07-20T07:02:07;3.00;;;2.23;;
3733;SDS011;1882;52.256;8.874;2023-07-20T07:04:40;3.10;;;2.23;;
3733;SDS011;1882;52.256;8.874;2023-07-20T07:07:07;2.33;;;2.13;;
3733;SDS011;1882;52.256;8.874;2023-07-20T07:09:33;1.83;;;1.73;;
3733;SDS011;1882;52.256;8.874;2023-07-20T07:12:00;3.80;;;2.10;;
3733;SDS011;1882;52.256;8.874;2023-07-20T07:14:27;6.30;;;2.00;;
3733;SDS011;1882;52.256;8.874;2023-07-20T07:16:54;3.30;;;1.70;;
3733;SDS011;1882;52.256;8.874;2023-07-20T07:19:24;2.97;;;2.10;;
3733;SDS011;1882;52.256;8.874;2023-07-20T07:21:50;3.90;;;2.50;;
3733;SDS011;1882;52.256;8.874;2023-07-20T07:24:17;2.50;;;2.30;;
3733;SDS011;1882;52.256;8.874;2023-07-20T07:26:45;2.40;;;1.87;;
3733;SDS011;1882;52.256;8.874;2023-07-20T07:29:12;4.33;;;2.20;;
3733;SDS011;1882;52.256;8.874;2023-07-20T07:31:38;2.60;;;2.07;;
3733;SDS011;1882;52.256;8.874;2023-07-20T07:34:05;6.70;;;1.97;;
3733;SDS011;1882;52.256;8.874;2023-07-20T07:36:32;7.93;;;2.13;;
3733;SDS011;1882;52.256;8.874;2023-07-20T07:38:59;2.33;;;2.03;;
3733;SDS011;1882;52.256;8.874;2023-07-20T07:41:46;2.20;;;2.00;;
3733;SDS011;1882;52.256;8.874;2023-07-20T07:44:12;2.37;;;2.13;;
3733;SDS011;1882;52.256;8.874;2023-07-20T07:46:39;3.73;;;1.90;;
3733;SDS011;1882;52.256;8.874;2023-07-20T07:49:06;9.23;;;2.20;;
3733;SDS011;1882;52.256;8.874;2023-07-20T07:51:32;3.03;;;2.00;;
3733;SDS011;1882;52.256;8.874;2023-07-20T07:53:59;2.50;;;1.70;;
3733;SDS011;1882;52.256;8.874;2023-07-20T07:56:26;2.57;;;2.37;;
3733;SDS011;1882;52.256;8.874;2023-07-20T07:58:53;2.60;;;2.40;;
3733;SDS011;1882;52.256;8.874;2023-07-20T08:01:19;2.90;;;2.60;;
3733;SDS011;1882;52.256;8.874;2023-07-20T08:03:46;2.93;;;2.53;;
3733;SDS011;1882;52.256;8.874;2023-07-20T08:06:14;6.90;;;2.40;;
3733;SDS011;1882;52.256;8.874;2023-07-20T08:08:41;3.20;;;2.30;;
3733;SDS011;1882;52.256;8.874;2023-07-20T08:11:08;2.10;;;1.93;;
3733;SDS011;1882;52.256;8.874;2023-07-20T08:13:35;3.93;;;2.30;;
3733;SDS011;1882;52.256;8.874;2023-07-20T08:16:02;1.90;;;1.80;;
3733;SDS011;1882;52.256;8.874;2023-07-20T08:18:29;2.20;;;2.00;;
3733;SDS011;1882;52.256;8.874;2023-07-20T08:20:56;2.30;;;2.10;;
3733;SDS011;1882;52.256;8.874;2023-07-20T08:23:23;2.60;;;1.77;;
3733;SDS011;1882;52.256;8.874;2023-07-20T08:25:50;1.80;;;1.60;;
3733;SDS011;1882;52.256;8.874;2023-07-20T08:28:19;3.70;;;1.93;;
3733;SDS011;1882;52.256;8.874;2023-07-20T08:30:49;2.77;;;1.70;;
3733;SDS011;1882;52.256;8.874;2023-07-20T08:33:17;2.33;;;1.97;;
3733;SDS011;1882;52.256;8.874;2023-07-20T08:35:56;4.63;;;1.70;;
3733;SDS011;1882;52.256;8.874;2023-07-20T08:38:25;2.03;;;1.63;;
3733;SDS011;1882;52.256;8.874;2023-07-20T08:40:55;4.63;;;1.80;;
3733;SDS011;1882;52.256;8.874;2023-07-20T08:43:43;4.87;;;1.80;;
3733;SDS011;1882;52.256;8.874;2023-07-20T08:46:13;2.47;;;2.10;;
3733;SDS011;1882;52.256;8.874;2023-07-20T08:48:41;2.13;;;1.90;;
3733;SDS011;1882;52.256;8.874;2023-07-20T08:51:08;2.10;;;1.90;;
3733;SDS011;1882;52.256;8.874;2023-07-20T08:53:48;1.70;;;1.60;;
3733;SDS011;1882;52.256;8.874;2023-07-20T08:56:17;3.40;;;1.90;;
3733;SDS011;1882;52.256;8.874;2023-07-20T08:58:47;2.90;;;1.57;;
3733;SDS011;1882;52.256;8.874;2023-07-20T09:01:13;4.17;;;2.10;;
3733;SDS011;1882;52.256;8.874;2023-07-20T09:03:41;1.90;;;1.80;;
3733;SDS011;1882;52.256;8.874;2023-07-20T09:06:09;2.13;;;1.90;;
3733;SDS011;1882;52.256;8.874;2023-07-20T09:08:39;2.60;;;2.10;;
3733;SDS011;1882;52.256;8.874;2023-07-20T09:11:07;6.87;;;1.90;;
3733;SDS011;1882;52.256;8.874;2023-07-20T09:13:45;2.80;;;2.07;;
3733;SDS011;1882;52.256;8.874;2023-07-20T09:16:17;2.80;;;1.70;;
3733;SDS011;1882;52.256;8.874;2023-07-20T09:18:44;2.27;;;1.60;;
3733;SDS011;1882;52.256;8.874;2023-07-20T09:21:11;4.23;;;1.57;;
3733;SDS011;1882;52.256;8.874;2023-07-20T09:23:39;1.70;;;1.50;;
3733;SDS011;1882;52.256;8.874;2023-07-20T09:26:13;2.17;;;1.43;;
3733;SDS011;1882;52.256;8.874;2023-07-20T09:28:47;1.60;;;1.50;;
3733;SDS011;1882;52.256;8.874;2023-07-20T09:31:16;2.27;;;1.50;;
3733;SDS011;1882;52.256;8.874;2023-07-20T09:33:48;2.00;;;1.70;;
3733;SDS011;1882;52.256;8.874;2023-07-20T09:36:28;3.23;;;1.40;;
3733;SDS011;1882;52.256;8.874;2023-07-20T09:38:58;2.03;;;1.50;;
3733;SDS011;1882;52.256;8.874;2023-07-20T09:41:39;2.00;;;1.40;;
3733;SDS011;1882;52.256;8.874;2023-07-20T09:44:16;2.30;;;1.30;;
3733;SDS011;1882;52.256;8.874;2023-07-20T09:46:46;3.13;;;1.40;;
3733;SDS011;1882;52.256;8.874;2023-07-20T09:49:17;3.63;;;1.33;;
3733;SDS011;1882;52.256;8.874;2023-07-20T09:51:47;1.50;;;1.40;;
3733;SDS011;1882;52.256;8.874;2023-07-20T09:54:13;5.20;;;1.27;;
3733;SDS011;1882;52.256;8.874;2023-07-20T09:56:41;1.10;;;1.00;;
3733;SDS011;1882;52.256;8.874;2023-07-20T09:59:08;1.30;;;1.20;;
3733;SDS011;1882;52.256;8.874;2023-07-20T10:01:35;1.60;;;1.50;;
3733;SDS011;1882;52.256;8.874;2023-07-20T10:04:04;2.10;;;1.20;;
3733;SDS011;1882;52.256;8.874;2023-07-20T10:06:34;1.40;;;1.30;;
3733;SDS011;1882;52.256;8.874;2023-07-20T10:09:03;2.67;;;1.50;;
3733;SDS011;1882;52.256;8.874;2023-07-20T10:11:30;1.50;;;1.40;;
3733;SDS011;1882;52.256;8.874;2023-07-20T10:13:58;2.20;;;1.47;;
3733;SDS011;1882;52.256;8.874;2023-07-20T10:16:35;1.50;;;1.40;;
3733;SDS011;1882;52.256;8.874;2023-07-20T10:19:11;2.70;;;1.30;;
3733;SDS011;1882;52.256;8.874;2023-07-20T10:21:47;2.50;;;1.30;;
3733;SDS011;1882;52.256;8.874;2023-07-20T10:24:21;1.50;;;1.40;;
3733;SDS011;1882;52.256;8.874;2023-07-20T10:26:48;4.27;;;1.60;;
3733;SDS011;1882;52.256;8.874;2023-07-20T10:29:15;1.50;;;1.40;;
3733;SDS011;1882;52.256;8.874;2023-07-20T10:31:41;1.50;;;1.40;;
3733;SDS011;1882;52.256;8.874;2023-07-20T10:34:09;2.80;;;1.30;;
3733;SDS011;1882;52.256;8.874;2023-07-20T10:36:43;1.87;;;1.40;;
3733;SDS011;1882;52.256;8.874;2023-07-20T10:39:22;1.53;;;1.40;;
3733;SDS011;1882;52.256;8.874;2023-07-20T10:41:53;1.50;;;1.40;;
3733;SDS011;1882;52.256;8.874;2023-07-20T10:44:26;3.23;;;1.50;;
3733;SDS011;1882;52.256;8.874;2023-07-20T10:46:58;1.40;;;1.30;;
3733;SDS011;1882;52.256;8.874;2023-07-20T10:49:30;2.30;;;1.30;;
3733;SDS011;1882;52.256;8.874;2023-07-20T10:51:59;1.97;;;1.40;;
3733;SDS011;1882;52.256;8.874;2023-07-20T10:56:54;1.70;;;1.60;;
3733;SDS011;1882;52.256;8.874;2023-07-20T11:01:54;1.47;;;1.37;;
3733;SDS011;1882;52.256;8.874;2023-07-20T11:04:37;4.50;;;1.40;;
3733;SDS011;1882;52.256;8.874;2023-07-20T11:07:04;1.30;;;1.20;;
3733;SDS011;1882;52.256;8.874;2023-07-20T11:09:34;2.73;;;1.47;;
3733;SDS011;1882;52.256;8.874;2023-07-20T11:12:11;3.10;;;1.40;;
3733;SDS011;1882;52.256;8.874;2023-07-20T11:14:55;2.17;;;1.60;;
3733;SDS011;1882;52.256;8.874;2023-07-20T11:17:29;2.90;;;1.60;;
3733;SDS011;1882;52.256;8.874;2023-07-20T11:19:57;3.60;;;1.47;;
3733;SDS011;1882;52.256;8.874;2023-07-20T11:22:27;1.63;;;1.40;;
3733;SDS011;1882;52.256;8.874;2023-07-20T11:24:57;1.60;;;1.47;;
3733;SDS011;1882;52.256;8.874;2023-07-20T11:27:25;1.83;;;1.50;;
3733;SDS011;1882;52.256;8.874;2023-07-20T11:29:52;1.30;;;1.20;;
3733;SDS011;1882;52.256;8.874;2023-07-20T11:32:22;6.00;;;1.37;;
3733;SDS011;1882;52.256;8.874;2023-07-20T11:34:50;1.53;;;1.43;;
3733;SDS011;1882;52.256;8.874;2023-07-20T11:37:17;2.80;;;1.67;;
3733;SDS011;1882;52.256;8.874;2023-07-20T11:39:44;4.00;;;1.33;;
3733;SDS011;1882;52.256;8.874;2023-07-20T11:42:11;2.70;;;1.47;;
3733;SDS011;1882;52.256;8.874;2023-07-20T11:44:39;2.63;;;1.50;;
3733;SDS011;1882;52.256;8.874;2023-07-20T11:47:12;2.70;;;1.40;;
3733;SDS011;1882;52.256;8.874;2023-07-20T11:49:42;2.00;;;1.20;;
3733;SDS011;1882;52.256;8.874;2023-07-20T11:52:10;1.60;;;1.50;;
3733;SDS011;1882;52.256;8.874;2023-07-20T11:54:38;1.30;;;1.20;;
3733;SDS011;1882;52.256;8.874;2023-07-20T11:57:06;1.50;;;1.40;;
3733;SDS011;1882;52.256;8.874;2023-07-20T11:59:33;1.90;;;1.43;;
3733;SDS011;1882;52.256;8.874;2023-07-20T12:02:03;1.50;;;1.40;;
3733;SDS011;1882;52.256;8.874;2023-07-20T12:04:33;1.93;;;1.40;;
3733;SDS011;1882;52.256;8.874;2023-07-20T12:07:00;1.33;;;1.23;;
3733;SDS011;1882;52.256;8.874;2023-07-20T12:09:27;2.80;;;1.47;;
3733;SDS011;1882;52.256;8.874;2023-07-20T12:12:10;1.40;;;1.30;;
3733;SDS011;1882;52.256;8.874;2023-07-20T12:14:40;1.40;;;1.30;;
3733;SDS011;1882;52.256;8.874;2023-07-20T12:17:07;1.73;;;1.60;;
3733;SDS011;1882;52.256;8.874;2023-07-20T12:19:37;1.40;;;1.30;;
3733;SDS011;1882;52.256;8.874;2023-07-20T12:22:04;1.40;;;1.30;;
3733;SDS011;1882;52.256;8.874;2023-07-20T12:24:32;1.83;;;1.40;;
3733;SDS011;1882;52.256;8.874;2023-07-20T12:26:59;1.53;;;1.43;;
3733;SDS011;1882;52.256;8.874;2023-07-20T12:29:25;1.50;;;1.33;;
3733;SDS011;1882;52.256;8.874;2023-07-20T12:31:52;1.20;;;1.10;;
3733;SDS011;1882;52.256;8.874;2023-07-20T12:34:19;2.50;;;1.50;;
3733;SDS011;1882;52.256;8.874;2023-07-20T12:36:46;1.50;;;1.40;;
3733;SDS011;1882;52.256;8.874;2023-07-20T12:39:12;1.50;;;1.40;;
3733;SDS011;1882;52.256;8.874;2023-07-20T12:41:39;1.30;;;1.20;;
3733;SDS011;1882;52.256;8.874;2023-07-20T12:44:05;1.30;;;1.20;;
3733;SDS011;1882;52.256;8.874;2023-07-20T12:46:32;1.40;;;1.30;;
3733;SDS011;1882;52.256;8.874;2023-07-20T12:49:01;1.50;;;1.40;;
3733;SDS011;1882;52.256;8.874;2023-07-20T12:51:28;2.23;;;1.20;;
3733;SDS011;1882;52.256;8.874;2023-07-20T12:53:55;1.70;;;1.60;;
3733;SDS011;1882;52.256;8.874;2023-07-20T12:56:22;2.10;;;1.47;;
3733;SDS011;1882;52.256;8.874;2023-07-20T12:58:51;2.20;;;1.33;;
3733;SDS011;1882;52.256;8.874;2023-07-20T13:01:18;1.63;;;1.53;;
3733;SDS011;1882;52.256;8.874;2023-07-20T13:03:45;2.27;;;1.43;;
3733;SDS011;1882;52.256;8.874;2023-07-20T13:06:14;1.93;;;1.30;;
3733;SDS011;1882;52.256;8.874;2023-07-20T13:08:44;1.53;;;1.30;;
3733;SDS011;1882;52.256;8.874;2023-07-20T13:11:11;2.63;;;1.40;;
3733;SDS011;1882;52.256;8.874;2023-07-20T13:13:37;1.70;;;1.60;;
3733;SDS011;1882;52.256;8.874;2023-07-20T13:16:04;1.90;;;1.70;;
3733;SDS011;1882;52.256;8.874;2023-07-20T13:18:31;2.23;;;1.43;;
3733;SDS011;1882;52.256;8.874;2023-07-20T13:20:58;2.93;;;2.00;;
3733;SDS011;1882;52.256;8.874;2023-07-20T13:23:28;3.07;;;1.77;;
3733;SDS011;1882;52.256;8.874;2023-07-20T13:25:54;1.80;;;1.70;;
3733;SDS011;1882;52.256;8.874;2023-07-20T13:28:21;4.30;;;2.00;;
3733;SDS011;1882;52.256;8.874;2023-07-20T13:30:48;3.00;;;2.07;;
3733;SDS011;1882;52.256;8.874;2023-07-20T13:33:14;4.20;;;2.20;;
3733;SDS011;1882;52.256;8.874;2023-07-20T13:35:44;2.20;;;2.00;;
3733;SDS011;1882;52.256;8.874;2023-07-20T13:38:13;2.27;;;2.07;;
3733;SDS011;1882;52.256;8.874;2023-07-20T13:40:40;2.50;;;1.80;;
3733;SDS011;1882;52.256;8.874;2023-07-20T13:43:07;2.50;;;2.30;;
3733;SDS011;1882;52.256;8.874;2023-07-20T13:45:33;2.87;;;2.07;;
3733;SDS011;1882;52.256;8.874;2023-07-20T13:48:00;3.30;;;3.10;;
3733;SDS011;1882;52.256;8.874;2023-07-20T13:50:28;3.40;;;3.20;;
3733;SDS011;1882;52.256;8.874;2023-07-20T13:53:08;3.00;;;2.80;;
3733;SDS011;1882;52.256;8.874;2023-07-20T13:55:37;2.60;;;2.40;;
3733;SDS011;1882;52.256;8.874;2023-07-20T13:58:07;2.50;;;2.30;;
3733;SDS011;1882;52.256;8.874;2023-07-20T14:00:38;2.47;;;2.27;;
3733;SDS011;1882;52.256;8.874;2023-07-20T14:03:05;3.27;;;2.10;;
3733;SDS011;1882;52.256;8.874;2023-07-20T14:05:34;2.30;;;2.10;;
3733;SDS011;1882;52.256;8.874;2023-07-20T14:08:04;2.50;;;2.30;;
3733;SDS011;1882;52.256;8.874;2023-07-20T14:10:31;4.13;;;2.20;;
3733;SDS011;1882;52.256;8.874;2023-07-20T14:12:58;1.90;;;1.80;;
3733;SDS011;1882;52.256;8.874;2023-07-20T14:15:25;2.10;;;2.00;;
3733;SDS011;1882;52.256;8.874;2023-07-20T14:17:51;2.00;;;1.90;;
3733;SDS011;1882;52.256;8.874;2023-07-20T14:20:20;2.30;;;1.97;;
3733;SDS011;1882;52.256;8.874;2023-07-20T14:22:48;2.20;;;2.07;;
3733;SDS011;1882;52.256;8.874;2023-07-20T14:25:17;3.90;;;2.30;;
3733;SDS011;1882;52.256;8.874;2023-07-20T14:27:45;3.07;;;2.77;;
3733;SDS011;1882;52.256;8.874;2023-07-20T14:30:12;5.10;;;3.00;;
3733;SDS011;1882;52.256;8.874;2023-07-20T14:32:40;2.80;;;2.60;;
3733;SDS011;1882;52.256;8.874;2023-07-20T14:35:07;2.40;;;2.20;;
3733;SDS011;1882;52.256;8.874;2023-07-20T14:37:36;2.77;;;2.57;;
3733;SDS011;1882;52.256;8.874;2023-07-20T14:40:03;2.43;;;2.23;;
3733;SDS011;1882;52.256;8.874;2023-07-20T14:42:34;5.77;;;2.10;;
3733;SDS011;1882;52.256;8.874;2023-07-20T14:45:01;6.90;;;2.30;;
3733;SDS011;1882;52.256;8.874;2023-07-20T14:47:29;2.40;;;2.20;;
3733;SDS011;1882;52.256;8.874;2023-07-20T14:49:58;2.60;;;2.30;;
3733;SDS011;1882;52.256;8.874;2023-07-20T14:52:25;3.63;;;2.93;;
3733;SDS011;1882;52.256;8.874;2023-07-20T14:54:54;2.40;;;2.23;;
3733;SDS011;1882;52.256;8.874;2023-07-20T14:57:21;2.40;;;2.20;;
3733;SDS011;1882;52.256;8.874;2023-07-20T14:59:49;2.53;;;2.33;;
3733;SDS011;1882;52.256;8.874;2023-07-20T15:02:16;3.37;;;2.17;;
3733;SDS011;1882;52.256;8.874;2023-07-20T15:04:46;2.37;;;2.10;;
3733;SDS011;1882;52.256;8.874;2023-07-20T15:07:14;4.00;;;1.90;;
3733;SDS011;1882;52.256;8.874;2023-07-20T15:09:41;3.80;;;2.10;;
3733;SDS011;1882;52.256;8.874;2023-07-20T15:12:11;2.13;;;2.00;;
3733;SDS011;1882;52.256;8.874;2023-07-20T15:14:39;2.50;;;1.70;;
3733;SDS011;1882;52.256;8.874;2023-07-20T15:17:06;2.30;;;1.87;;
3733;SDS011;1882;52.256;8.874;2023-07-20T15:19:33;2.13;;;1.93;;
3733;SDS011;1882;52.256;8.874;2023-07-20T15:22:00;2.83;;;2.10;;
3733;SDS011;1882;52.256;8.874;2023-07-20T15:24:28;2.53;;;1.97;;
3733;SDS011;1882;52.256;8.874;2023-07-20T15:26:58;5.03;;;2.00;;
3733;SDS011;1882;52.256;8.874;2023-07-20T15:29:25;2.93;;;1.90;;
3733;SDS011;1882;52.256;8.874;2023-07-20T15:31:54;3.43;;;2.07;;
3733;SDS011;1882;52.256;8.874;2023-07-20T15:34:24;2.50;;;1.77;;
3733;SDS011;1882;52.256;8.874;2023-07-20T15:36:51;2.00;;;1.90;;
3733;SDS011;1882;52.256;8.874;2023-07-20T15:39:17;2.10;;;2.00;;